sensor_id;sensor_type;location;lat;lon;timestamp;temperature;humidity
60727;DHT22;46577;49.004;12.120;2022-10-26T00:01:28;10.20;99.90
60727;DHT22;46577;49.004;12.120;2022-10-26T00:03:55;10.20;99.90
60727;DHT22;46577;49.004;12.120;2022-10-26T00:06:23;10.20;99.90
60727;DHT22;46577;49.004;12.120;2022-10-26T00:08:50;10.20;99.90
60727;DHT22;46577;49.004;12.120;2022-10-26T00:11:17;10.20;99.90
60727;DHT22;46577;49.004;12.120;2022-10-26T00:13:44;10.20;99.90
60727;DHT22;46577;49.004;12.120;2022-10-26T00:16:19;10.20;99.90
60727;DHT22;46577;49.004;12.120;2022-10-26T00:18:45;10.20;99.90
60727;DHT22;46577;49.004;12.120;2022-10-26T00:21:11;10.20;99.90
60727;DHT22;46577;49.004;12.120;2022-10-26T00:23:37;10.20;99.90
60727;DHT22;46577;49.004;12.120;2022-10-26T00:26:03;10.10;99.90
60727;DHT22;46577;49.004;12.120;2022-10-26T00:28:30;10.10;99.90
60727;DHT22;46577;49.004;12.120;2022-10-26T00:31:21;10.10;99.90
60727;DHT22;46577;49.004;12.120;2022-10-26T00:33:46;10.10;99.90
60727;DHT22;46577;49.004;12.120;2022-10-26T00:36:11;10.10;99.90
60727;DHT22;46577;49.004;12.120;2022-10-26T00:38:40;10.10;99.90
60727;DHT22;46577;49.004;12.120;2022-10-26T00:41:39;10.10;99.90
60727;DHT22;46577;49.004;12.120;2022-10-26T00:47:14;10.20;99.90
60727;DHT22;46577;49.004;12.120;2022-10-26T00:49:40;10.20;99.90
60727;DHT22;46577;49.004;12.120;2022-10-26T00:52:06;10.20;99.90
60727;DHT22;46577;49.004;12.120;2022-10-26T00:54:33;10.20;99.90
60727;DHT22;46577;49.004;12.120;2022-10-26T00:56:59;10.30;99.90
60727;DHT22;46577;49.004;12.120;2022-10-26T00:59:25;10.30;99.90
60727;DHT22;46577;49.004;12.120;2022-10-26T01:01:51;10.30;99.90
60727;DHT22;46577;49.004;12.120;2022-10-26T01:04:17;10.40;99.90
60727;DHT22;46577;49.004;12.120;2022-10-26T01:06:44;10.40;99.90
60727;DHT22;46577;49.004;12.120;2022-10-26T01:09:11;10.40;99.90
60727;DHT22;46577;49.004;12.120;2022-10-26T01:11:37;10.50;99.90
60727;DHT22;46577;49.004;12.120;2022-10-26T01:14:06;10.50;99.90
60727;DHT22;46577;49.004;12.120;2022-10-26T01:21:56;10.50;99.90
60727;DHT22;46577;49.004;12.120;2022-10-26T01:27:37;10.60;99.90
60727;DHT22;46577;49.004;12.120;2022-10-26T01:38:03;10.70;99.90
60727;DHT22;46577;49.004;12.120;2022-10-26T01:40:36;10.70;99.90
60727;DHT22;46577;49.004;12.120;2022-10-26T01:43:07;10.70;99.90
60727;DHT22;46577;49.004;12.120;2022-10-26T01:45:34;10.70;99.90
60727;DHT22;46577;49.004;12.120;2022-10-26T01:48:02;10.80;99.90
60727;DHT22;46577;49.004;12.120;2022-10-26T01:50:29;10.80;99.90
60727;DHT22;46577;49.004;12.120;2022-10-26T01:52:56;10.90;99.90
60727;DHT22;46577;49.004;12.120;2022-10-26T01:55:50;10.90;99.90
60727;DHT22;46577;49.004;12.120;2022-10-26T01:58:51;10.90;99.90
60727;DHT22;46577;49.004;12.120;2022-10-26T02:04:18;10.90;99.90
60727;DHT22;46577;49.004;12.120;2022-10-26T02:15:09;11.10;99.90
60727;DHT22;46577;49.004;12.120;2022-10-26T02:17:58;11.10;99.90
60727;DHT22;46577;49.004;12.120;2022-10-26T02:20:33;11.00;99.90
60727;DHT22;46577;49.004;12.120;2022-10-26T02:23:02;10.90;99.90
60727;DHT22;46577;49.004;12.120;2022-10-26T02:25:31;10.90;99.90
60727;DHT22;46577;49.004;12.120;2022-10-26T02:28:07;11.00;99.90
60727;DHT22;46577;49.004;12.120;2022-10-26T02:30:35;11.00;99.90
60727;DHT22;46577;49.004;12.120;2022-10-26T02:33:04;10.90;99.90
60727;DHT22;46577;49.004;12.120;2022-10-26T02:35:33;11.00;99.90
60727;DHT22;46577;49.004;12.120;2022-10-26T02:38:02;11.10;99.90
60727;DHT22;46577;49.004;12.120;2022-10-26T02:40:29;11.10;99.90
60727;DHT22;46577;49.004;12.120;2022-10-26T02:42:59;11.20;99.90
60727;DHT22;46577;49.004;12.120;2022-10-26T02:45:32;11.20;99.90
60727;DHT22;46577;49.004;12.120;2022-10-26T02:47:58;11.30;99.90
60727;DHT22;46577;49.004;12.120;2022-10-26T02:50:30;11.30;99.90
60727;DHT22;46577;49.004;12.120;2022-10-26T02:53:30;11.30;99.90
60727;DHT22;46577;49.004;12.120;2022-10-26T02:55:54;11.30;99.90
60727;DHT22;46577;49.004;12.120;2022-10-26T02:58:26;11.20;99.90
60727;DHT22;46577;49.004;12.120;2022-10-26T03:00:53;11.20;99.90
60727;DHT22;46577;49.004;12.120;2022-10-26T03:03:19;11.10;99.90
60727;DHT22;46577;49.004;12.120;2022-10-26T03:05:45;11.10;99.90
60727;DHT22;46577;49.004;12.120;2022-10-26T03:08:11;11.00;99.90
60727;DHT22;46577;49.004;12.120;2022-10-26T03:10:40;11.00;99.90
60727;DHT22;46577;49.004;12.120;2022-10-26T03:13:07;11.00;99.90
60727;DHT22;46577;49.004;12.120;2022-10-26T03:15:33;11.10;99.90
60727;DHT22;46577;49.004;12.120;2022-10-26T03:17:58;11.10;99.90
60727;DHT22;46577;49.004;12.120;2022-10-26T03:20:24;11.10;99.90
60727;DHT22;46577;49.004;12.120;2022-10-26T03:22:49;11.20;99.90
60727;DHT22;46577;49.004;12.120;2022-10-26T03:25:15;11.20;99.90
60727;DHT22;46577;49.004;12.120;2022-10-26T03:27:41;11.30;99.90
60727;DHT22;46577;49.004;12.120;2022-10-26T03:30:07;11.30;99.90
60727;DHT22;46577;49.004;12.120;2022-10-26T03:32:33;11.20;99.90
60727;DHT22;46577;49.004;12.120;2022-10-26T03:34:59;11.10;99.90
60727;DHT22;46577;49.004;12.120;2022-10-26T03:37:25;11.00;99.90
60727;DHT22;46577;49.004;12.120;2022-10-26T03:39:50;11.00;99.90
60727;DHT22;46577;49.004;12.120;2022-10-26T03:42:16;11.00;99.90
60727;DHT22;46577;49.004;12.120;2022-10-26T03:44:42;11.20;99.90
60727;DHT22;46577;49.004;12.120;2022-10-26T03:47:07;11.20;99.90
60727;DHT22;46577;49.004;12.120;2022-10-26T03:49:34;11.20;99.90
60727;DHT22;46577;49.004;12.120;2022-10-26T03:52:00;11.20;99.90
60727;DHT22;46577;49.004;12.120;2022-10-26T03:54:26;11.20;99.90
60727;DHT22;46577;49.004;12.120;2022-10-26T03:56:52;11.20;99.90
60727;DHT22;46577;49.004;12.120;2022-10-26T03:59:17;11.10;99.90
60727;DHT22;46577;49.004;12.120;2022-10-26T04:01:43;11.10;99.90
60727;DHT22;46577;49.004;12.120;2022-10-26T04:04:09;11.10;99.90
60727;DHT22;46577;49.004;12.120;2022-10-26T04:06:34;11.20;99.90
60727;DHT22;46577;49.004;12.120;2022-10-26T04:09:00;11.20;99.90
60727;DHT22;46577;49.004;12.120;2022-10-26T04:11:29;11.10;99.90
60727;DHT22;46577;49.004;12.120;2022-10-26T04:13:55;11.10;99.90
60727;DHT22;46577;49.004;12.120;2022-10-26T04:16:24;11.00;99.90
60727;DHT22;46577;49.004;12.120;2022-10-26T04:18:50;11.10;99.90
60727;DHT22;46577;49.004;12.120;2022-10-26T04:21:15;11.10;99.90
60727;DHT22;46577;49.004;12.120;2022-10-26T04:23:41;11.20;99.90
60727;DHT22;46577;49.004;12.120;2022-10-26T04:26:07;11.20;99.90
60727;DHT22;46577;49.004;12.120;2022-10-26T04:28:32;11.20;99.90
60727;DHT22;46577;49.004;12.120;2022-10-26T04:30:58;11.20;99.90
60727;DHT22;46577;49.004;12.120;2022-10-26T04:33:24;11.20;99.90
60727;DHT22;46577;49.004;12.120;2022-10-26T04:35:49;11.30;99.90
60727;DHT22;46577;49.004;12.120;2022-10-26T04:38:15;11.30;99.90
60727;DHT22;46577;49.004;12.120;2022-10-26T04:40:40;11.30;99.90
60727;DHT22;46577;49.004;12.120;2022-10-26T04:43:06;11.30;99.90
60727;DHT22;46577;49.004;12.120;2022-10-26T04:45:32;11.40;99.90
60727;DHT22;46577;49.004;12.120;2022-10-26T04:48:06;11.40;99.90
60727;DHT22;46577;49.004;12.120;2022-10-26T04:50:33;11.30;99.90
60727;DHT22;46577;49.004;12.120;2022-10-26T04:52:58;11.20;99.90
60727;DHT22;46577;49.004;12.120;2022-10-26T04:55:24;11.20;99.90
60727;DHT22;46577;49.004;12.120;2022-10-26T04:57:50;11.30;99.90
60727;DHT22;46577;49.004;12.120;2022-10-26T05:00:16;11.30;99.90
60727;DHT22;46577;49.004;12.120;2022-10-26T05:02:41;11.40;99.90
60727;DHT22;46577;49.004;12.120;2022-10-26T05:05:07;11.40;99.90
60727;DHT22;46577;49.004;12.120;2022-10-26T05:07:33;11.40;99.90
60727;DHT22;46577;49.004;12.120;2022-10-26T05:09:59;11.30;99.90
60727;DHT22;46577;49.004;12.120;2022-10-26T05:12:24;11.30;99.90
60727;DHT22;46577;49.004;12.120;2022-10-26T05:14:50;11.30;99.90
60727;DHT22;46577;49.004;12.120;2022-10-26T05:17:15;11.30;99.90
60727;DHT22;46577;49.004;12.120;2022-10-26T05:19:41;11.40;99.90
60727;DHT22;46577;49.004;12.120;2022-10-26T05:22:07;11.40;99.90
60727;DHT22;46577;49.004;12.120;2022-10-26T05:24:33;11.30;99.90
60727;DHT22;46577;49.004;12.120;2022-10-26T05:26:59;11.30;99.90
60727;DHT22;46577;49.004;12.120;2022-10-26T05:29:24;11.40;99.90
60727;DHT22;46577;49.004;12.120;2022-10-26T05:31:50;11.40;99.90
60727;DHT22;46577;49.004;12.120;2022-10-26T05:34:16;11.40;99.90
60727;DHT22;46577;49.004;12.120;2022-10-26T05:36:42;11.50;99.90
60727;DHT22;46577;49.004;12.120;2022-10-26T05:39:07;11.50;99.90
60727;DHT22;46577;49.004;12.120;2022-10-26T05:41:33;11.50;99.90
60727;DHT22;46577;49.004;12.120;2022-10-26T05:43:58;11.40;99.90
60727;DHT22;46577;49.004;12.120;2022-10-26T05:46:24;11.50;99.90
60727;DHT22;46577;49.004;12.120;2022-10-26T05:48:50;11.50;99.90
60727;DHT22;46577;49.004;12.120;2022-10-26T05:51:15;11.50;99.90
60727;DHT22;46577;49.004;12.120;2022-10-26T05:53:41;11.60;99.90
60727;DHT22;46577;49.004;12.120;2022-10-26T05:56:18;11.60;99.90
60727;DHT22;46577;49.004;12.120;2022-10-26T05:58:46;11.60;99.90
60727;DHT22;46577;49.004;12.120;2022-10-26T06:06:52;11.70;99.90
60727;DHT22;46577;49.004;12.120;2022-10-26T06:09:18;11.70;99.90
60727;DHT22;46577;49.004;12.120;2022-10-26T06:11:44;11.70;99.90
60727;DHT22;46577;49.004;12.120;2022-10-26T06:14:10;11.70;99.90
60727;DHT22;46577;49.004;12.120;2022-10-26T06:16:54;11.70;99.90
60727;DHT22;46577;49.004;12.120;2022-10-26T06:25:34;11.90;99.90
60727;DHT22;46577;49.004;12.120;2022-10-26T06:30:49;11.80;99.90
60727;DHT22;46577;49.004;12.120;2022-10-26T06:33:14;11.90;99.90
60727;DHT22;46577;49.004;12.120;2022-10-26T06:35:49;12.00;99.90
60727;DHT22;46577;49.004;12.120;2022-10-26T06:38:19;12.00;99.90
60727;DHT22;46577;49.004;12.120;2022-10-26T06:40:48;12.10;99.90
60727;DHT22;46577;49.004;12.120;2022-10-26T06:43:34;12.10;99.90
60727;DHT22;46577;49.004;12.120;2022-10-26T06:48:53;12.20;99.90
60727;DHT22;46577;49.004;12.120;2022-10-26T06:51:22;12.30;99.90
60727;DHT22;46577;49.004;12.120;2022-10-26T06:53:59;12.30;99.90
60727;DHT22;46577;49.004;12.120;2022-10-26T06:56:27;12.50;99.90
60727;DHT22;46577;49.004;12.120;2022-10-26T06:58:53;12.50;99.90
60727;DHT22;46577;49.004;12.120;2022-10-26T07:01:19;12.70;99.90
60727;DHT22;46577;49.004;12.120;2022-10-26T07:03:45;12.60;99.90
60727;DHT22;46577;49.004;12.120;2022-10-26T07:06:11;12.70;99.90
60727;DHT22;46577;49.004;12.120;2022-10-26T07:08:36;12.70;99.90
60727;DHT22;46577;49.004;12.120;2022-10-26T07:11:02;12.60;99.90
60727;DHT22;46577;49.004;12.120;2022-10-26T07:13:29;12.40;99.90
60727;DHT22;46577;49.004;12.120;2022-10-26T07:15:54;12.50;99.90
60727;DHT22;46577;49.004;12.120;2022-10-26T07:18:20;12.40;99.90
60727;DHT22;46577;49.004;12.120;2022-10-26T07:20:45;12.30;99.90
60727;DHT22;46577;49.004;12.120;2022-10-26T07:23:11;12.30;99.90
60727;DHT22;46577;49.004;12.120;2022-10-26T07:25:37;12.30;99.90
60727;DHT22;46577;49.004;12.120;2022-10-26T07:28:08;12.40;99.90
60727;DHT22;46577;49.004;12.120;2022-10-26T07:30:35;12.50;99.90
60727;DHT22;46577;49.004;12.120;2022-10-26T07:33:04;12.70;99.90
60727;DHT22;46577;49.004;12.120;2022-10-26T07:35:31;13.00;99.90
60727;DHT22;46577;49.004;12.120;2022-10-26T07:37:57;13.30;99.90
60727;DHT22;46577;49.004;12.120;2022-10-26T07:40:23;13.40;99.90
60727;DHT22;46577;49.004;12.120;2022-10-26T07:42:49;13.50;99.90
60727;DHT22;46577;49.004;12.120;2022-10-26T07:45:15;13.50;99.90
60727;DHT22;46577;49.004;12.120;2022-10-26T07:47:40;13.60;99.90
60727;DHT22;46577;49.004;12.120;2022-10-26T07:50:06;13.80;99.90
60727;DHT22;46577;49.004;12.120;2022-10-26T07:52:33;13.90;99.90
60727;DHT22;46577;49.004;12.120;2022-10-26T07:55:00;14.00;99.90
60727;DHT22;46577;49.004;12.120;2022-10-26T07:57:25;14.10;99.90
60727;DHT22;46577;49.004;12.120;2022-10-26T07:59:51;14.30;99.90
60727;DHT22;46577;49.004;12.120;2022-10-26T08:02:17;14.40;99.90
60727;DHT22;46577;49.004;12.120;2022-10-26T08:04:43;14.40;99.90
60727;DHT22;46577;49.004;12.120;2022-10-26T08:07:09;14.60;99.90
60727;DHT22;46577;49.004;12.120;2022-10-26T08:09:34;14.60;99.90
60727;DHT22;46577;49.004;12.120;2022-10-26T08:12:00;14.70;99.90
60727;DHT22;46577;49.004;12.120;2022-10-26T08:14:25;14.70;99.90
60727;DHT22;46577;49.004;12.120;2022-10-26T08:16:51;14.70;99.90
60727;DHT22;46577;49.004;12.120;2022-10-26T08:19:18;14.50;99.90
60727;DHT22;46577;49.004;12.120;2022-10-26T08:21:43;14.50;99.90
60727;DHT22;46577;49.004;12.120;2022-10-26T08:24:09;14.60;99.90
60727;DHT22;46577;49.004;12.120;2022-10-26T08:26:35;14.70;99.90
60727;DHT22;46577;49.004;12.120;2022-10-26T08:29:01;14.80;99.90
60727;DHT22;46577;49.004;12.120;2022-10-26T08:31:26;14.50;99.90
60727;DHT22;46577;49.004;12.120;2022-10-26T08:33:52;14.50;99.90
60727;DHT22;46577;49.004;12.120;2022-10-26T08:36:22;14.50;99.90
60727;DHT22;46577;49.004;12.120;2022-10-26T08:38:48;14.70;99.90
60727;DHT22;46577;49.004;12.120;2022-10-26T08:41:14;14.70;99.90
60727;DHT22;46577;49.004;12.120;2022-10-26T08:43:44;14.50;99.90
60727;DHT22;46577;49.004;12.120;2022-10-26T08:46:20;14.40;99.90
60727;DHT22;46577;49.004;12.120;2022-10-26T08:48:53;14.30;99.90
60727;DHT22;46577;49.004;12.120;2022-10-26T08:51:24;14.20;99.90
60727;DHT22;46577;49.004;12.120;2022-10-26T08:53:51;14.20;99.90
60727;DHT22;46577;49.004;12.120;2022-10-26T08:58:56;14.50;99.90
60727;DHT22;46577;49.004;12.120;2022-10-26T09:01:23;14.60;99.90
60727;DHT22;46577;49.004;12.120;2022-10-26T09:03:48;14.70;99.90
60727;DHT22;46577;49.004;12.120;2022-10-26T09:25:53;14.60;99.90
60727;DHT22;46577;49.004;12.120;2022-10-26T09:28:22;14.50;99.90
60727;DHT22;46577;49.004;12.120;2022-10-26T09:30:49;14.50;99.90
60727;DHT22;46577;49.004;12.120;2022-10-26T09:35:49;14.40;99.90
60727;DHT22;46577;49.004;12.120;2022-10-26T09:38:23;14.40;99.90
60727;DHT22;46577;49.004;12.120;2022-10-26T09:46:14;14.40;99.90
60727;DHT22;46577;49.004;12.120;2022-10-26T09:48:50;14.40;99.90
60727;DHT22;46577;49.004;12.120;2022-10-26T09:51:18;14.50;99.90
60727;DHT22;46577;49.004;12.120;2022-10-26T09:53:44;14.50;99.90
60727;DHT22;46577;49.004;12.120;2022-10-26T09:56:11;14.60;99.90
60727;DHT22;46577;49.004;12.120;2022-10-26T09:58:55;14.80;99.90
60727;DHT22;46577;49.004;12.120;2022-10-26T10:01:28;14.90;99.90
60727;DHT22;46577;49.004;12.120;2022-10-26T10:06:35;16.10;99.90
60727;DHT22;46577;49.004;12.120;2022-10-26T10:11:39;16.50;99.90
60727;DHT22;46577;49.004;12.120;2022-10-26T10:14:12;16.70;99.90
60727;DHT22;46577;49.004;12.120;2022-10-26T10:16:39;16.90;99.90
60727;DHT22;46577;49.004;12.120;2022-10-26T10:19:09;17.30;99.90
60727;DHT22;46577;49.004;12.120;2022-10-26T10:21:48;17.60;99.90
60727;DHT22;46577;49.004;12.120;2022-10-26T10:24:31;17.80;99.90
60727;DHT22;46577;49.004;12.120;2022-10-26T10:27:15;17.80;99.90
60727;DHT22;46577;49.004;12.120;2022-10-26T10:32:14;18.50;99.90
60727;DHT22;46577;49.004;12.120;2022-10-26T10:34:41;19.00;99.90
60727;DHT22;46577;49.004;12.120;2022-10-26T10:37:59;18.90;99.90
60727;DHT22;46577;49.004;12.120;2022-10-26T10:40:19;18.20;99.90
60727;DHT22;46577;49.004;12.120;2022-10-26T10:42:45;17.90;99.90
60727;DHT22;46577;49.004;12.120;2022-10-26T10:45:26;17.70;99.90
60727;DHT22;46577;49.004;12.120;2022-10-26T10:50:27;17.60;99.90
60727;DHT22;46577;49.004;12.120;2022-10-26T10:53:18;17.50;99.90
60727;DHT22;46577;49.004;12.120;2022-10-26T11:01:03;16.80;99.90
60727;DHT22;46577;49.004;12.120;2022-10-26T11:06:18;16.80;99.90
60727;DHT22;46577;49.004;12.120;2022-10-26T11:08:49;16.80;99.90
60727;DHT22;46577;49.004;12.120;2022-10-26T11:11:51;16.70;99.90
60727;DHT22;46577;49.004;12.120;2022-10-26T11:14:10;16.80;99.90
60727;DHT22;46577;49.004;12.120;2022-10-26T11:22:40;17.00;99.90
60727;DHT22;46577;49.004;12.120;2022-10-26T11:27:46;17.10;99.90
60727;DHT22;46577;49.004;12.120;2022-10-26T11:30:21;17.10;99.90
60727;DHT22;46577;49.004;12.120;2022-10-26T11:35:39;17.30;99.90
60727;DHT22;46577;49.004;12.120;2022-10-26T11:38:16;17.30;99.90
60727;DHT22;46577;49.004;12.120;2022-10-26T11:40:54;17.60;99.90
60727;DHT22;46577;49.004;12.120;2022-10-26T11:46:39;17.80;99.90
60727;DHT22;46577;49.004;12.120;2022-10-26T11:52:13;16.50;99.90
60727;DHT22;46577;49.004;12.120;2022-10-26T11:54:57;17.60;99.90
60727;DHT22;46577;49.004;12.120;2022-10-26T11:57:25;17.50;99.90
60727;DHT22;46577;49.004;12.120;2022-10-26T12:00:04;17.40;99.90
60727;DHT22;46577;49.004;12.120;2022-10-26T12:02:42;17.20;99.90
60727;DHT22;46577;49.004;12.120;2022-10-26T12:07:39;16.80;99.90
60727;DHT22;46577;49.004;12.120;2022-10-26T12:10:26;16.70;99.90
60727;DHT22;46577;49.004;12.120;2022-10-26T12:13:26;16.70;99.90
60727;DHT22;46577;49.004;12.120;2022-10-26T12:15:55;16.80;99.90
60727;DHT22;46577;49.004;12.120;2022-10-26T12:18:42;16.90;99.90
60727;DHT22;46577;49.004;12.120;2022-10-26T12:21:10;17.00;99.90
60727;DHT22;46577;49.004;12.120;2022-10-26T12:24:01;17.10;99.90
60727;DHT22;46577;49.004;12.120;2022-10-26T12:34:00;17.60;99.90
60727;DHT22;46577;49.004;12.120;2022-10-26T12:39:36;18.00;99.90
60727;DHT22;46577;49.004;12.120;2022-10-26T12:45:00;18.30;99.90
60727;DHT22;46577;49.004;12.120;2022-10-26T13:03:26;18.60;99.90
60727;DHT22;46577;49.004;12.120;2022-10-26T13:06:21;18.50;99.90
60727;DHT22;46577;49.004;12.120;2022-10-26T13:08:53;18.70;99.90
60727;DHT22;46577;49.004;12.120;2022-10-26T13:11:35;18.90;99.90
60727;DHT22;46577;49.004;12.120;2022-10-26T13:14:07;18.90;99.90
60727;DHT22;46577;49.004;12.120;2022-10-26T13:16:33;18.60;99.90
60727;DHT22;46577;49.004;12.120;2022-10-26T13:18:59;18.50;99.90
60727;DHT22;46577;49.004;12.120;2022-10-26T13:21:26;18.40;99.90
60727;DHT22;46577;49.004;12.120;2022-10-26T13:26:25;18.40;99.90
60727;DHT22;46577;49.004;12.120;2022-10-26T13:28:53;18.20;99.90
60727;DHT22;46577;49.004;12.120;2022-10-26T13:34:13;17.70;99.90
60727;DHT22;46577;49.004;12.120;2022-10-26T13:36:52;17.60;99.90
60727;DHT22;46577;49.004;12.120;2022-10-26T13:39:35;17.40;99.90
60727;DHT22;46577;49.004;12.120;2022-10-26T13:42:01;17.40;99.90
60727;DHT22;46577;49.004;12.120;2022-10-26T13:47:36;17.40;99.90
60727;DHT22;46577;49.004;12.120;2022-10-26T13:50:06;17.20;99.90
60727;DHT22;46577;49.004;12.120;2022-10-26T13:52:41;17.10;99.90
60727;DHT22;46577;49.004;12.120;2022-10-26T13:55:27;17.00;99.90
60727;DHT22;46577;49.004;12.120;2022-10-26T13:58:17;16.90;99.90
60727;DHT22;46577;49.004;12.120;2022-10-26T14:01:20;18.40;99.90
60727;DHT22;46577;49.004;12.120;2022-10-26T14:03:47;16.90;99.90
60727;DHT22;46577;49.004;12.120;2022-10-26T14:06:34;16.90;99.90
60727;DHT22;46577;49.004;12.120;2022-10-26T14:09:04;16.80;99.90
60727;DHT22;46577;49.004;12.120;2022-10-26T14:11:34;16.90;99.90
60727;DHT22;46577;49.004;12.120;2022-10-26T14:14:02;16.90;99.90
60727;DHT22;46577;49.004;12.120;2022-10-26T14:16:29;16.90;99.90
60727;DHT22;46577;49.004;12.120;2022-10-26T14:18:55;16.90;99.90
60727;DHT22;46577;49.004;12.120;2022-10-26T14:21:21;16.80;99.90
60727;DHT22;46577;49.004;12.120;2022-10-26T14:23:59;16.70;99.90
60727;DHT22;46577;49.004;12.120;2022-10-26T14:26:37;16.70;99.90
60727;DHT22;46577;49.004;12.120;2022-10-26T14:29:03;16.70;99.90
60727;DHT22;46577;49.004;12.120;2022-10-26T14:31:38;16.60;99.90
60727;DHT22;46577;49.004;12.120;2022-10-26T14:34:04;16.60;99.90
60727;DHT22;46577;49.004;12.120;2022-10-26T14:36:41;16.50;99.90
60727;DHT22;46577;49.004;12.120;2022-10-26T14:39:38;16.40;99.90
60727;DHT22;46577;49.004;12.120;2022-10-26T14:44:51;16.50;99.90
60727;DHT22;46577;49.004;12.120;2022-10-26T14:47:31;16.50;99.90
60727;DHT22;46577;49.004;12.120;2022-10-26T14:49:58;16.60;99.90
60727;DHT22;46577;49.004;12.120;2022-10-26T14:52:34;16.70;99.90
60727;DHT22;46577;49.004;12.120;2022-10-26T14:55:14;16.90;99.90
60727;DHT22;46577;49.004;12.120;2022-10-26T14:57:46;17.00;99.90
60727;DHT22;46577;49.004;12.120;2022-10-26T15:02:46;17.00;99.90
60727;DHT22;46577;49.004;12.120;2022-10-26T15:05:27;19.00;99.90
60727;DHT22;46577;49.004;12.120;2022-10-26T15:07:58;17.00;99.90
60727;DHT22;46577;49.004;12.120;2022-10-26T15:13:29;16.60;99.90
60727;DHT22;46577;49.004;12.120;2022-10-26T15:18:47;16.30;99.90
60727;DHT22;46577;49.004;12.120;2022-10-26T15:21:35;16.30;99.90
60727;DHT22;46577;49.004;12.120;2022-10-26T15:26:46;16.10;99.90
60727;DHT22;46577;49.004;12.120;2022-10-26T15:29:38;16.10;99.90
60727;DHT22;46577;49.004;12.120;2022-10-26T15:32:16;16.10;99.90
60727;DHT22;46577;49.004;12.120;2022-10-26T15:35:31;16.00;99.90
60727;DHT22;46577;49.004;12.120;2022-10-26T15:37:32;15.90;99.90
60727;DHT22;46577;49.004;12.120;2022-10-26T15:39:59;15.90;99.90
60727;DHT22;46577;49.004;12.120;2022-10-26T15:42:24;15.80;99.90
60727;DHT22;46577;49.004;12.120;2022-10-26T15:44:53;15.60;99.90
60727;DHT22;46577;49.004;12.120;2022-10-26T15:47:19;15.60;99.90
60727;DHT22;46577;49.004;12.120;2022-10-26T15:49:46;15.50;99.90
60727;DHT22;46577;49.004;12.120;2022-10-26T15:52:12;15.30;99.90
60727;DHT22;46577;49.004;12.120;2022-10-26T15:54:37;15.30;99.90
60727;DHT22;46577;49.004;12.120;2022-10-26T15:57:03;15.30;99.90
60727;DHT22;46577;49.004;12.120;2022-10-26T15:59:29;15.20;99.90
60727;DHT22;46577;49.004;12.120;2022-10-26T16:01:55;15.10;99.90
60727;DHT22;46577;49.004;12.120;2022-10-26T16:04:20;15.10;99.90
60727;DHT22;46577;49.004;12.120;2022-10-26T16:06:46;15.00;99.90
60727;DHT22;46577;49.004;12.120;2022-10-26T16:09:14;15.00;99.90
60727;DHT22;46577;49.004;12.120;2022-10-26T16:11:41;14.90;99.90
60727;DHT22;46577;49.004;12.120;2022-10-26T16:14:08;15.00;99.90
60727;DHT22;46577;49.004;12.120;2022-10-26T16:16:34;15.00;99.90
60727;DHT22;46577;49.004;12.120;2022-10-26T16:19:00;15.00;99.90
60727;DHT22;46577;49.004;12.120;2022-10-26T16:21:25;15.00;99.90
60727;DHT22;46577;49.004;12.120;2022-10-26T16:23:54;15.00;99.90
60727;DHT22;46577;49.004;12.120;2022-10-26T16:26:20;15.00;99.90
60727;DHT22;46577;49.004;12.120;2022-10-26T16:28:46;15.00;99.90
60727;DHT22;46577;49.004;12.120;2022-10-26T16:31:14;15.00;99.90
60727;DHT22;46577;49.004;12.120;2022-10-26T16:33:40;14.90;99.90
60727;DHT22;46577;49.004;12.120;2022-10-26T16:36:06;14.90;99.90
60727;DHT22;46577;49.004;12.120;2022-10-26T16:38:32;14.90;99.90
60727;DHT22;46577;49.004;12.120;2022-10-26T16:41:05;14.80;99.90
60727;DHT22;46577;49.004;12.120;2022-10-26T16:43:32;14.70;99.90
60727;DHT22;46577;49.004;12.120;2022-10-26T16:45:58;14.70;99.90
60727;DHT22;46577;49.004;12.120;2022-10-26T16:48:24;14.70;99.90
60727;DHT22;46577;49.004;12.120;2022-10-26T16:50:50;14.70;99.90
60727;DHT22;46577;49.004;12.120;2022-10-26T16:53:15;14.70;99.90
60727;DHT22;46577;49.004;12.120;2022-10-26T16:55:41;14.70;99.90
60727;DHT22;46577;49.004;12.120;2022-10-26T16:58:08;14.80;99.90
60727;DHT22;46577;49.004;12.120;2022-10-26T17:00:35;14.70;99.90
60727;DHT22;46577;49.004;12.120;2022-10-26T17:03:01;14.70;99.90
60727;DHT22;46577;49.004;12.120;2022-10-26T17:05:27;14.70;99.90
60727;DHT22;46577;49.004;12.120;2022-10-26T17:07:53;14.80;99.90
60727;DHT22;46577;49.004;12.120;2022-10-26T17:10:19;14.70;99.90
60727;DHT22;46577;49.004;12.120;2022-10-26T17:12:45;14.70;99.90
60727;DHT22;46577;49.004;12.120;2022-10-26T17:15:10;14.70;99.90
60727;DHT22;46577;49.004;12.120;2022-10-26T17:17:36;14.80;99.90
60727;DHT22;46577;49.004;12.120;2022-10-26T17:20:03;14.70;99.90
60727;DHT22;46577;49.004;12.120;2022-10-26T17:22:29;14.70;99.90
60727;DHT22;46577;49.004;12.120;2022-10-26T17:24:54;14.70;99.90
60727;DHT22;46577;49.004;12.120;2022-10-26T17:27:20;14.60;99.90
60727;DHT22;46577;49.004;12.120;2022-10-26T17:29:47;14.60;99.90
60727;DHT22;46577;49.004;12.120;2022-10-26T17:32:13;14.60;99.90
60727;DHT22;46577;49.004;12.120;2022-10-26T17:34:40;14.60;99.90
60727;DHT22;46577;49.004;12.120;2022-10-26T17:37:06;14.60;99.90
60727;DHT22;46577;49.004;12.120;2022-10-26T17:39:32;14.70;99.90
60727;DHT22;46577;49.004;12.120;2022-10-26T17:41:57;14.70;99.90
60727;DHT22;46577;49.004;12.120;2022-10-26T17:44:23;14.60;99.90
60727;DHT22;46577;49.004;12.120;2022-10-26T17:46:48;14.60;99.90
60727;DHT22;46577;49.004;12.120;2022-10-26T17:49:14;14.60;99.90
60727;DHT22;46577;49.004;12.120;2022-10-26T17:51:39;14.70;99.90
60727;DHT22;46577;49.004;12.120;2022-10-26T17:54:05;14.60;99.90
60727;DHT22;46577;49.004;12.120;2022-10-26T17:56:32;15.80;99.90
60727;DHT22;46577;49.004;12.120;2022-10-26T17:59:04;14.60;99.90
60727;DHT22;46577;49.004;12.120;2022-10-26T18:01:30;14.60;99.90
60727;DHT22;46577;49.004;12.120;2022-10-26T18:03:56;14.60;99.90
60727;DHT22;46577;49.004;12.120;2022-10-26T18:06:22;14.60;99.90
60727;DHT22;46577;49.004;12.120;2022-10-26T18:08:48;14.60;99.90
60727;DHT22;46577;49.004;12.120;2022-10-26T18:11:19;14.60;99.90
60727;DHT22;46577;49.004;12.120;2022-10-26T18:13:45;14.70;99.90
60727;DHT22;46577;49.004;12.120;2022-10-26T18:16:18;14.70;99.90
60727;DHT22;46577;49.004;12.120;2022-10-26T18:18:46;14.70;99.90